createdAt,value
2022-08-26T00:01:56.688Z,40.85
2022-08-26T00:04:26.209Z,40.30
2022-08-26T00:06:56.499Z,40.43
2022-08-26T00:09:25.247Z,40.79
2022-08-26T00:11:53.910Z,40.36
2022-08-26T00:14:24.169Z,40.61
2022-08-26T00:16:56.504Z,40.50
2022-08-26T00:19:24.538Z,40.62
2022-08-26T00:21:53.412Z,40.75
2022-08-26T00:24:23.016Z,40.54
2022-08-26T00:26:51.791Z,40.41
2022-08-26T00:29:21.236Z,40.35
2022-08-26T00:31:49.543Z,40.50
2022-08-26T00:34:19.559Z,40.82
2022-08-26T00:36:47.872Z,41.03
2022-08-26T00:39:20.148Z,40.58
2022-08-26T00:41:50.103Z,40.84
2022-08-26T00:44:19.561Z,40.85
2022-08-26T00:46:50.460Z,40.66
2022-08-26T00:49:23.045Z,40.62
2022-08-26T00:51:55.027Z,40.86
2022-08-26T00:54:28.722Z,40.55
2022-08-26T00:57:01.836Z,40.79
2022-08-26T00:59:32.944Z,40.49
2022-08-26T01:02:02.803Z,40.98
2022-08-26T01:04:33.451Z,40.72
2022-08-26T01:07:01.593Z,40.52
2022-08-26T01:09:31.364Z,40.71
2022-08-26T01:12:03.512Z,40.82
2022-08-26T01:14:34.371Z,40.80
2022-08-26T01:17:07.436Z,40.73
2022-08-26T01:19:43.535Z,40.63
2022-08-26T01:22:18.217Z,41.05
2022-08-26T01:24:48.958Z,40.73
2022-08-26T01:27:20.625Z,40.77
2022-08-26T01:29:50.481Z,40.76
2022-08-26T01:32:23.387Z,41.05
2022-08-26T01:34:52.766Z,40.82
2022-08-26T01:37:24.140Z,40.94
2022-08-26T01:39:55.747Z,40.88
2022-08-26T01:42:27.336Z,40.67
2022-08-26T01:45:02.014Z,40.71
2022-08-26T01:47:32.021Z,40.70
2022-08-26T01:50:03.986Z,40.93
2022-08-26T01:52:35.486Z,40.79
2022-08-26T01:55:07.389Z,40.89
2022-08-26T01:57:36.968Z,40.83
2022-08-26T02:00:08.646Z,40.98
2022-08-26T02:02:40.473Z,41.37
2022-08-26T02:05:15.673Z,40.94
2022-08-26T02:07:45.221Z,40.90
2022-08-26T02:10:14.971Z,41.33
2022-08-26T02:12:43.188Z,40.87
2022-08-26T02:15:13.652Z,41.13
2022-08-26T02:17:44.490Z,41.04
2022-08-26T02:20:15.027Z,41.45
2022-08-26T02:22:45.480Z,41.23
2022-08-26T02:25:20.927Z,40.89
2022-08-26T02:27:49.238Z,40.97
2022-08-26T02:30:20.137Z,40.68
2022-08-26T02:32:49.618Z,40.65
2022-08-26T02:35:20.316Z,40.80
2022-08-26T02:37:49.446Z,41.13
2022-08-26T02:40:22.557Z,41.09
2022-08-26T02:42:53.001Z,41.19
2022-08-26T02:45:24.750Z,41.06
2022-08-26T02:47:53.421Z,41.03
2022-08-26T02:50:22.237Z,40.84
2022-08-26T02:52:50.200Z,40.54
2022-08-26T02:55:20.002Z,40.56
2022-08-26T02:57:48.065Z,40.93
2022-08-26T03:00:17.512Z,40.65
2022-08-26T03:02:46.284Z,40.79
2022-08-26T03:05:14.460Z,40.81
2022-08-26T03:07:43.849Z,40.93
2022-08-26T03:10:13.613Z,40.45
2022-08-26T03:12:48.111Z,40.99
2022-08-26T03:15:18.434Z,40.35
2022-08-26T03:17:48.148Z,40.56
2022-08-26T03:20:17.399Z,40.62
2022-08-26T03:22:46.685Z,40.52
2022-08-26T03:25:17.646Z,40.43
2022-08-26T03:27:47.293Z,40.90
2022-08-26T03:30:33.520Z,40.66
2022-08-26T03:33:01.999Z,40.76
2022-08-26T03:35:30.399Z,40.83
2022-08-26T03:37:58.477Z,40.62
2022-08-26T03:40:29.106Z,40.43
2022-08-26T03:42:58.596Z,40.58
2022-08-26T03:45:27.937Z,40.59
2022-08-26T03:47:56.114Z,40.72
2022-08-26T03:50:27.090Z,40.93
2022-08-26T03:52:56.019Z,41.11
2022-08-26T03:55:25.665Z,41.05
2022-08-26T03:57:55.828Z,40.89
2022-08-26T04:00:25.573Z,40.67
2022-08-26T04:02:53.667Z,41.23
2022-08-26T04:05:23.635Z,41.04
2022-08-26T04:07:52.410Z,40.92
2022-08-26T04:10:29.253Z,40.97
2022-08-26T04:12:58.703Z,40.94
2022-08-26T04:15:28.924Z,41.40
2022-08-26T04:17:57.341Z,41.23
2022-08-26T04:20:25.912Z,41.75
2022-08-26T04:22:54.007Z,41.36
2022-08-26T04:25:22.564Z,41.51
2022-08-26T04:27:52.438Z,42.09
2022-08-26T04:30:21.251Z,42.08
2022-08-26T04:32:51.031Z,41.97
2022-08-26T04:35:22.784Z,42.13
2022-08-26T04:37:54.195Z,42.08
2022-08-26T04:40:22.224Z,42.04
2022-08-26T04:42:50.293Z,42.29
2022-08-26T04:45:19.228Z,41.78
2022-08-26T04:47:56.427Z,41.91
2022-08-26T04:50:26.675Z,41.89
2022-08-26T04:52:55.373Z,42.38
2022-08-26T04:55:38.201Z,41.93
2022-08-26T04:58:10.367Z,42.15
2022-08-26T05:00:39.492Z,42.06
2022-08-26T05:03:10.305Z,41.99
2022-08-26T05:05:40.888Z,41.95
2022-08-26T05:08:08.956Z,42.04
2022-08-26T05:10:40.925Z,42.43
2022-08-26T05:13:11.211Z,42.50
2022-08-26T05:15:40.237Z,42.56
2022-08-26T05:18:11.232Z,42.53
2022-08-26T05:20:41.162Z,42.71
2022-08-26T05:23:09.571Z,43.09
2022-08-26T05:25:39.636Z,43.24
2022-08-26T05:28:07.803Z,43.27
2022-08-26T05:30:36.132Z,43.32
2022-08-26T05:33:04.393Z,43.33
2022-08-26T05:35:34.476Z,43.25
2022-08-26T05:38:03.705Z,43.50
2022-08-26T05:40:36.380Z,43.56
2022-08-26T05:43:08.098Z,43.25
2022-08-26T05:45:42.334Z,43.41
2022-08-26T05:48:15.198Z,43.61
2022-08-26T05:50:48.768Z,44.01
2022-08-26T05:53:20.768Z,43.86
2022-08-26T05:55:52.652Z,43.84
2022-08-26T05:58:22.466Z,43.91
2022-08-26T06:00:58.942Z,44.55
2022-08-26T06:03:27.689Z,44.74
2022-08-26T06:05:57.033Z,44.46
2022-08-26T06:08:25.656Z,44.68
2022-08-26T06:10:56.262Z,44.69
2022-08-26T06:13:26.839Z,44.80
2022-08-26T06:15:56.560Z,44.87
2022-08-26T06:18:32.530Z,45.37
2022-08-26T06:21:03.318Z,45.26
2022-08-26T06:23:48.772Z,45.29
2022-08-26T06:26:18.256Z,45.26
2022-08-26T06:28:46.316Z,45.36
2022-08-26T06:31:15.846Z,45.35
2022-08-26T06:33:44.228Z,45.87
2022-08-26T06:36:19.447Z,45.60
2022-08-26T06:38:48.676Z,46.21
2022-08-26T06:41:18.018Z,45.88
2022-08-26T06:43:46.264Z,45.83
2022-08-26T06:46:17.294Z,46.26
2022-08-26T06:48:45.752Z,45.97
2022-08-26T06:51:16.636Z,45.40
2022-08-26T06:53:48.303Z,45.50
2022-08-26T06:56:19.270Z,46.18
2022-08-26T06:58:47.649Z,45.56
2022-08-26T07:01:17.199Z,45.88
2022-08-26T07:03:47.072Z,45.79
2022-08-26T07:06:18.545Z,45.76
2022-08-26T07:08:48.189Z,45.14
2022-08-26T07:11:16.986Z,45.35
2022-08-26T07:13:45.066Z,45.48
2022-08-26T07:16:16.908Z,45.24
2022-08-26T07:18:45.420Z,44.77
2022-08-26T07:21:16.649Z,44.59
2022-08-26T07:23:46.399Z,44.65
2022-08-26T07:26:18.493Z,44.89
2022-08-26T07:28:48.861Z,44.67
2022-08-26T07:31:17.781Z,44.62
2022-08-26T07:33:46.805Z,44.66
2022-08-26T07:36:15.949Z,44.31
2022-08-26T07:38:45.255Z,44.73
2022-08-26T07:41:15.197Z,44.69
2022-08-26T07:43:45.529Z,44.43
2022-08-26T07:46:18.565Z,43.99
2022-08-26T07:48:56.389Z,44.63
2022-08-26T07:51:24.976Z,44.41
2022-08-26T07:53:54.243Z,44.44
2022-08-26T07:56:23.406Z,44.12
2022-08-26T07:58:52.977Z,44.33
2022-08-26T08:01:21.106Z,43.98
2022-08-26T08:03:51.589Z,44.26
2022-08-26T08:06:20.020Z,43.94
2022-08-26T08:08:50.744Z,44.29
2022-08-26T08:11:21.123Z,43.99
2022-08-26T08:13:49.790Z,44.28
2022-08-26T08:16:26.271Z,43.91
2022-08-26T08:18:54.545Z,43.84
2022-08-26T08:21:24.346Z,44.32
2022-08-26T08:23:53.669Z,43.99
2022-08-26T08:26:22.188Z,43.73
2022-08-26T08:28:50.640Z,43.92
2022-08-26T08:31:45.108Z,44.08
2022-08-26T08:34:12.981Z,44.17
2022-08-26T08:36:40.977Z,43.65
2022-08-26T08:39:09.773Z,43.64
2022-08-26T08:41:49.406Z,43.80
2022-08-26T08:46:57.752Z,44.12
2022-08-26T08:49:28.347Z,44.24
2022-08-26T08:52:02.492Z,43.72
2022-08-26T08:54:33.943Z,44.25
2022-08-26T08:57:07.257Z,43.96
2022-08-26T08:59:38.531Z,43.98
2022-08-26T09:02:19.381Z,43.83
2022-08-26T09:05:04.520Z,43.87
2022-08-26T09:07:37.759Z,43.76
2022-08-26T09:10:24.140Z,44.03
2022-08-26T09:12:53.240Z,43.85
2022-08-26T09:15:27.441Z,43.75
2022-08-26T09:18:09.550Z,43.96
2022-08-26T09:20:49.828Z,43.89
2022-08-26T09:23:19.173Z,43.61
2022-08-26T09:25:50.127Z,43.65
2022-08-26T09:28:20.014Z,43.91
2022-08-26T09:30:59.942Z,43.98
2022-08-26T09:33:29.884Z,44.00
2022-08-26T09:38:53.868Z,43.57
2022-08-26T09:41:31.632Z,43.50
2022-08-26T09:44:18.031Z,43.85
2022-08-26T09:46:55.317Z,43.89
2022-08-26T09:49:36.116Z,43.48
2022-08-26T09:52:15.538Z,44.01
2022-08-26T09:54:46.166Z,43.97
2022-08-26T09:57:25.918Z,43.44
2022-08-26T09:59:54.277Z,43.58
2022-08-26T10:02:47.954Z,43.71
2022-08-26T10:05:30.581Z,43.77
2022-08-26T10:08:00.246Z,43.80
2022-08-26T10:10:36.725Z,43.85
2022-08-26T10:13:10.374Z,43.40
2022-08-26T10:15:50.679Z,43.95
2022-08-26T10:18:24.713Z,43.59
2022-08-26T10:20:58.905Z,43.91
2022-08-26T10:23:32.766Z,43.93
2022-08-26T10:26:09.660Z,44.00
2022-08-26T10:28:44.771Z,43.87
2022-08-26T10:31:28.852Z,43.45
2022-08-26T10:34:00.346Z,44.00
2022-08-26T10:37:14.681Z,43.69
2022-08-26T10:39:46.027Z,43.75
2022-08-26T10:42:23.035Z,43.62
2022-08-26T10:44:58.547Z,43.81
2022-08-26T10:47:31.834Z,43.94
2022-08-26T10:50:03.293Z,43.49
2022-08-26T10:52:43.472Z,43.96
2022-08-26T10:55:17.881Z,43.50
2022-08-26T10:57:56.489Z,43.46
2022-08-26T11:00:48.064Z,43.48
2022-08-26T11:03:31.189Z,43.84
2022-08-26T11:06:23.075Z,43.75
2022-08-26T11:08:52.712Z,43.84
2022-08-26T11:11:45.367Z,43.36
2022-08-26T11:14:53.522Z,43.70
2022-08-26T11:17:58.385Z,43.44
2022-08-26T11:20:39.122Z,43.54
2022-08-26T11:23:50.520Z,43.40
2022-08-26T11:26:35.652Z,43.33
2022-08-26T11:29:12.066Z,43.63
2022-08-26T11:31:57.423Z,43.12
2022-08-26T11:34:56.218Z,43.10
2022-08-26T11:37:36.500Z,43.17
2022-08-26T11:40:10.518Z,43.24
2022-08-26T11:42:43.417Z,43.20
2022-08-26T11:45:20.536Z,43.04
2022-08-26T11:47:50.058Z,43.15
2022-08-26T11:50:21.596Z,42.96
2022-08-26T11:52:54.875Z,43.08
2022-08-26T11:55:24.246Z,42.98
2022-08-26T11:57:55.445Z,43.45
2022-08-26T12:00:26.506Z,43.36
2022-08-26T12:02:56.053Z,43.48
2022-08-26T12:05:30.963Z,43.39
2022-08-26T12:08:07.140Z,42.93
2022-08-26T12:10:36.821Z,43.41
2022-08-26T12:13:07.292Z,43.30
2022-08-26T12:15:36.618Z,43.41
2022-08-26T12:18:28.741Z,43.40
2022-08-26T12:20:59.820Z,43.08
2022-08-26T12:23:37.873Z,43.17
2022-08-26T12:26:10.473Z,43.23
2022-08-26T12:28:44.725Z,43.11
2022-08-26T12:31:13.271Z,43.03
2022-08-26T12:33:47.013Z,43.26
2022-08-26T12:36:22.962Z,43.27
2022-08-26T12:38:51.139Z,43.19
2022-08-26T12:41:48.183Z,43.19
2022-08-26T12:44:42.253Z,43.10
2022-08-26T12:47:41.784Z,43.28
2022-08-26T12:50:19.661Z,42.69
2022-08-26T12:52:57.521Z,42.74
2022-08-26T12:55:35.540Z,43.07
2022-08-26T12:58:29.640Z,43.13
2022-08-26T13:00:59.423Z,43.22
2022-08-26T13:03:43.429Z,43.21
2022-08-26T13:06:27.944Z,42.81
2022-08-26T13:08:59.057Z,42.71
2022-08-26T13:11:31.552Z,42.75
2022-08-26T13:14:02.200Z,42.96
2022-08-26T13:16:35.563Z,42.70
2022-08-26T13:19:10.374Z,43.11
2022-08-26T13:21:44.722Z,42.78
2022-08-26T13:24:15.097Z,43.02
2022-08-26T13:26:45.718Z,43.05
2022-08-26T13:29:14.244Z,42.82
2022-08-26T13:31:44.995Z,42.62
2022-08-26T13:34:15.695Z,42.99
2022-08-26T13:36:45.195Z,43.02
2022-08-26T13:39:13.996Z,42.95
2022-08-26T13:41:42.426Z,43.00
2022-08-26T13:44:11.519Z,42.56
2022-08-26T13:46:39.566Z,43.04
2022-08-26T13:49:08.285Z,42.54
2022-08-26T13:51:36.296Z,42.69
2022-08-26T13:54:06.572Z,43.01
2022-08-26T13:56:35.297Z,42.63
2022-08-26T13:59:03.449Z,42.69
2022-08-26T14:01:33.172Z,42.68
2022-08-26T14:04:03.135Z,42.62
2022-08-26T14:06:31.495Z,42.73
2022-08-26T14:08:59.837Z,42.70
2022-08-26T14:11:29.523Z,42.59
2022-08-26T14:14:07.104Z,42.67
2022-08-26T14:16:38.768Z,42.70
2022-08-26T14:19:26.720Z,42.44
2022-08-26T14:21:54.695Z,43.02
2022-08-26T14:24:22.668Z,42.80
2022-08-26T14:26:51.983Z,42.54
2022-08-26T14:29:19.978Z,42.94
2022-08-26T14:31:48.362Z,42.60
2022-08-26T14:34:16.433Z,42.97
2022-08-26T14:36:44.341Z,43.04
2022-08-26T14:39:14.678Z,42.87
2022-08-26T14:41:53.923Z,42.94
2022-08-26T14:44:27.934Z,42.88
2022-08-26T14:46:56.442Z,42.91
2022-08-26T14:49:27.271Z,42.57
2022-08-26T14:51:56.408Z,42.46
2022-08-26T14:54:23.345Z,42.44
2022-08-26T14:56:53.892Z,42.94
2022-08-26T14:59:25.459Z,42.61
2022-08-26T15:01:54.394Z,42.76
2022-08-26T15:04:23.166Z,42.63
2022-08-26T15:06:52.034Z,42.88
2022-08-26T15:09:20.010Z,42.44
2022-08-26T15:11:48.512Z,42.94
2022-08-26T15:14:19.640Z,42.51
2022-08-26T15:16:50.215Z,42.97
2022-08-26T15:19:18.795Z,42.75
2022-08-26T15:21:47.302Z,42.50
2022-08-26T15:24:17.927Z,42.43
2022-08-26T15:26:46.741Z,42.92
2022-08-26T15:29:15.106Z,42.89
2022-08-26T15:31:43.389Z,42.56
2022-08-26T15:34:16.728Z,42.57
2022-08-26T15:36:46.319Z,42.42
2022-08-26T15:39:15.917Z,42.52
2022-08-26T15:41:44.050Z,42.48
2022-08-26T15:44:13.769Z,42.57
2022-08-26T15:46:42.159Z,42.76
2022-08-26T15:49:18.549Z,42.54
2022-08-26T15:51:50.462Z,42.81
2022-08-26T15:54:21.007Z,42.35
2022-08-26T15:56:52.084Z,42.42
2022-08-26T15:59:22.222Z,42.72
2022-08-26T16:01:50.648Z,42.38
2022-08-26T16:04:18.725Z,42.61
2022-08-26T16:06:51.537Z,42.83
2022-08-26T16:09:20.301Z,42.45
2022-08-26T16:11:48.294Z,42.53
2022-08-26T16:14:16.569Z,42.39
2022-08-26T16:16:44.601Z,42.80
2022-08-26T16:19:12.649Z,42.58
2022-08-26T16:21:41.780Z,42.52
2022-08-26T16:24:11.957Z,42.43
2022-08-26T16:26:41.894Z,42.51
2022-08-26T16:29:13.870Z,42.88
2022-08-26T16:31:42.841Z,43.05
2022-08-26T16:34:11.556Z,42.61
2022-08-26T16:36:40.510Z,42.68
2022-08-26T16:39:09.796Z,42.91
2022-08-26T16:41:39.448Z,42.90
2022-08-26T16:44:08.854Z,42.66
2022-08-26T16:46:37.007Z,42.74
2022-08-26T16:49:05.095Z,42.86
2022-08-26T16:51:37.929Z,43.06
2022-08-26T16:54:07.910Z,42.77
2022-08-26T16:56:36.961Z,42.57
2022-08-26T16:59:07.318Z,43.02
2022-08-26T17:01:35.791Z,42.64
2022-08-26T17:04:04.336Z,43.10
2022-08-26T17:06:32.655Z,42.74
2022-08-26T17:09:00.636Z,42.97
2022-08-26T17:11:28.631Z,42.73
2022-08-26T17:13:57.025Z,42.94
2022-08-26T17:16:27.248Z,42.37
2022-08-26T17:18:56.225Z,42.42
2022-08-26T17:21:24.265Z,42.49
2022-08-26T17:23:52.233Z,42.69
2022-08-26T17:26:20.261Z,42.34
2022-08-26T17:28:48.226Z,42.84
2022-08-26T17:31:16.296Z,42.86
2022-08-26T17:33:48.857Z,42.67
2022-08-26T17:36:21.229Z,42.50
2022-08-26T17:38:50.633Z,42.81
2022-08-26T17:41:22.264Z,42.54
2022-08-26T17:43:50.460Z,42.84
2022-08-26T17:46:18.500Z,42.39
2022-08-26T17:48:48.326Z,42.71
2022-08-26T17:51:19.229Z,42.34
2022-08-26T17:53:48.655Z,42.82
2022-08-26T17:56:19.812Z,42.82
2022-08-26T17:58:51.599Z,42.72
2022-08-26T18:01:20.532Z,42.84
2022-08-26T18:03:50.424Z,42.42
2022-08-26T18:06:19.111Z,42.34
2022-08-26T18:08:47.151Z,42.52
2022-08-26T18:11:18.398Z,42.72
2022-08-26T18:13:47.613Z,42.36
2022-08-26T18:16:16.861Z,42.47
2022-08-26T18:18:45.143Z,42.38
2022-08-26T18:21:16.732Z,42.76
2022-08-26T18:23:45.604Z,42.76
2022-08-26T18:26:18.196Z,42.85
2022-08-26T18:28:46.226Z,42.35
2022-08-26T18:31:15.295Z,42.29
2022-08-26T18:33:44.136Z,42.43
2022-08-26T18:36:19.541Z,42.66
2022-08-26T18:38:48.048Z,42.35
2022-08-26T18:41:20.729Z,42.47
2022-08-26T18:43:50.379Z,42.92
2022-08-26T18:46:20.187Z,42.72
2022-08-26T18:48:50.712Z,42.64
2022-08-26T18:51:23.368Z,42.60
2022-08-26T18:53:51.977Z,42.59
2022-08-26T18:56:20.022Z,42.58
2022-08-26T18:58:48.527Z,42.65
2022-08-26T19:01:17.625Z,42.57
2022-08-26T19:03:46.392Z,42.66
2022-08-26T19:06:15.695Z,42.57
2022-08-26T19:08:46.114Z,42.45
2022-08-26T19:11:32.063Z,42.43
2022-08-26T19:14:03.446Z,42.98
2022-08-26T19:16:32.113Z,42.80
2022-08-26T19:19:01.489Z,43.08
2022-08-26T19:21:30.700Z,42.65
2022-08-26T19:24:02.670Z,42.94
2022-08-26T19:26:31.540Z,42.47
2022-08-26T19:29:00.153Z,42.98
2022-08-26T19:31:28.584Z,42.59
2022-08-26T19:33:58.060Z,42.51
2022-08-26T19:36:26.788Z,42.64
2022-08-26T19:38:55.867Z,42.48
2022-08-26T19:41:37.254Z,42.81
2022-08-26T19:44:08.261Z,42.50
2022-08-26T19:49:10.483Z,42.62
2022-08-26T19:51:38.682Z,42.83
2022-08-26T19:54:07.118Z,42.74
2022-08-26T19:56:36.619Z,42.55
2022-08-26T19:59:04.913Z,42.59
2022-08-26T20:01:32.965Z,42.93
2022-08-26T20:04:01.168Z,42.83
2022-08-26T20:06:29.190Z,42.61
2022-08-26T20:08:57.283Z,43.13
2022-08-26T20:11:25.833Z,42.69
2022-08-26T20:13:55.346Z,42.81
2022-08-26T20:16:23.481Z,42.76
2022-08-26T20:19:08.756Z,42.98
2022-08-26T20:21:39.817Z,42.81
2022-08-26T20:24:09.909Z,43.21
2022-08-26T20:26:39.878Z,42.71
2022-08-26T20:29:11.383Z,42.86
2022-08-26T20:31:40.415Z,42.88
2022-08-26T20:34:08.448Z,43.25
2022-08-26T20:36:36.502Z,43.08
2022-08-26T20:39:05.417Z,42.86
2022-08-26T20:41:33.617Z,43.00
2022-08-26T20:44:01.957Z,42.79
2022-08-26T20:46:31.487Z,43.24
2022-08-26T20:48:59.485Z,43.16
2022-08-26T20:51:28.757Z,42.83
2022-08-26T20:53:56.894Z,43.09
2022-08-26T20:56:25.017Z,43.26
2022-08-26T20:58:55.225Z,42.99
2022-08-26T21:01:25.983Z,43.22
2022-08-26T21:03:56.866Z,42.89
2022-08-26T21:06:24.950Z,42.84
2022-08-26T21:08:52.982Z,43.29
2022-08-26T21:11:21.506Z,43.15
2022-08-26T21:14:04.449Z,43.27
2022-08-26T21:16:36.029Z,43.22
2022-08-26T21:19:06.400Z,42.83
2022-08-26T21:21:35.348Z,43.32
2022-08-26T21:24:03.859Z,42.86
2022-08-26T21:26:31.996Z,43.01
2022-08-26T21:29:02.291Z,43.20
2022-08-26T21:31:31.947Z,43.21
2022-08-26T21:34:00.691Z,43.45
2022-08-26T21:36:30.193Z,43.26
2022-08-26T21:38:58.274Z,43.48
2022-08-26T21:41:27.682Z,43.48
2022-08-26T21:43:59.217Z,43.02
2022-08-26T21:46:29.611Z,43.16
2022-08-26T21:49:00.123Z,43.53
2022-08-26T21:51:31.904Z,43.32
2022-08-26T21:54:01.729Z,43.52
2022-08-26T21:56:32.520Z,43.14
2022-08-26T21:59:01.353Z,43.62
2022-08-26T22:01:34.937Z,43.12
2022-08-26T22:04:06.864Z,43.32
2022-08-26T22:06:42.331Z,43.22
2022-08-26T22:09:11.325Z,43.56
2022-08-26T22:11:39.439Z,43.39
2022-08-26T22:14:07.657Z,43.78
2022-08-26T22:16:35.734Z,43.76
2022-08-26T22:19:03.796Z,43.79
2022-08-26T22:21:32.153Z,43.38
2022-08-26T22:24:01.685Z,43.47
2022-08-26T22:26:32.607Z,43.54
2022-08-26T22:29:02.444Z,43.69
2022-08-26T22:31:37.571Z,43.34
2022-08-26T22:34:07.387Z,43.54
2022-08-26T22:36:35.560Z,43.70
2022-08-26T22:39:06.820Z,43.35
2022-08-26T22:41:38.464Z,43.55
2022-08-26T22:44:06.495Z,43.70
2022-08-26T22:46:35.044Z,43.56
2022-08-26T22:49:04.588Z,43.53
2022-08-26T22:51:33.388Z,43.60
2022-08-26T22:54:01.677Z,44.00
2022-08-26T22:56:31.224Z,43.54
2022-08-26T22:58:59.163Z,43.53
2022-08-26T23:01:27.538Z,43.55
2022-08-26T23:03:55.539Z,44.00
2022-08-26T23:06:23.597Z,43.93
2022-08-26T23:08:53.120Z,43.95
2022-08-26T23:11:21.096Z,44.01
2022-08-26T23:13:50.440Z,44.04
2022-08-26T23:16:18.543Z,43.77
2022-08-26T23:18:47.065Z,43.91
2022-08-26T23:21:15.232Z,44.13
2022-08-26T23:23:44.326Z,44.26
2022-08-26T23:26:17.449Z,44.18
2022-08-26T23:28:45.828Z,43.96
2022-08-26T23:31:15.392Z,43.99
2022-08-26T23:34:00.716Z,44.33
2022-08-26T23:36:31.036Z,44.18
2022-08-26T23:39:03.236Z,44.12
2022-08-26T23:41:31.216Z,44.10
2022-08-26T23:44:03.286Z,43.98
2022-08-26T23:46:33.253Z,44.14
2022-08-26T23:49:01.493Z,44.05
2022-08-26T23:51:46.954Z,44.30
2022-08-26T23:54:16.349Z,44.61
2022-08-26T23:56:44.860Z,44.63
2022-08-26T23:59:12.828Z,44.58
